Aérodrome :
LOGIN :

S'inscrire | Disclaimer

   EN    FR    IT 

 










Légende :    VFR   VFR Marginal   IFR   IFR Intensif   IFR Très Intensif
Visi : 
Plafond : 
>= 8 km
>= 3000ft
5 à 8 km
1000 à 3000 ft
1500m à 5 km
500 à 1000 ft
800 à 1500m
200 à 500 ft
< 800m
< 200 ft
Symboles :   Orages  Brouillard  Fortes neiges  Fortes précipitations  Vent > 20 kt
SIGMETs :   Divers  Orages  Givrage  Turbulence  Onde Orograph.  Cendres Volcan.







- Altitude de l'aérodrome : 288 ft
- Code IATA : BZZ


EGVN - RAF Brize Norton

DERNIER METAR :
  • 142150Z 27004KT 9999 FEW024 SCT170 02/01 Q0989 NOSIG

METARs EXPIRÉS :
  • 142128Z 25004KT 9999 FEW022 SCT190 02/01 Q0989 BLU NOSIG
  • 142038Z 26007KT 9999 -SHRA FEW015 SCT024 BKN039 03/01 Q0988 WHT BECMG SCT025 BLU
  • 141950Z 23003KT 9999 BKN030 02/01 Q0988 BLU TEMPO 7000 -SHRA BKN020 WHT

TAF TAF EGVN
Valide du 14 à 21h jusqu'au 15 à 21h UTC


141939Z 1421/1521 26008KT 9999 FEW020
PROB30
TEMPO 1421/1423 7000 -SHRA BKN018
TEMPO 1503/1508 7000 -SHRA BKN012
PROB40
TEMPO 1504/1507 4000 SHRASN SCT006
TEMPO 1508/1512 SCT012
Pas de NOTAMs connus pour ce terrain.
1 SIGMET publié pour la FIR London (EGTT) :
 
Turbulence forte
EGTT SIGMET 05 VALID 141900/142300 EGRR
EGTT LONDON FIR SEV TURB FCST SW OF LINE N5000 W00149 - N5152 W00623 SFC/FL060 STNR WKN=



MET'MAP, la Météo Aéronautique d'un coup d'oeil ! - Copyright ORBIFLY Décembre 2007 - Disclaimer

ORBIFLY MET'MAP TEAM :

Programmation & Développement : Alexandra Zaïnal
Conception & Développement : Baudouin d'Aumeries
Co-Programmation & Développement : Marc-Olivier Méhu
Soutien technique & logistique : Manuel Goepfert

Contact : metmap@orbifly.com




SOURCES & CREDITS :

   NOAA